Venus Seven — H9RN — position and weather

sailwx.info

Track history (hours):
 
Tides and Currents Weather Stations Pressure Air Temp Water Temp Dewpoint Dewpoint Depression Visibility Wind Speed Wind Dir Waves Ship Positions

Venus Seven

Last reported at 2017-Sep-22 01:59 UTC. Time now 2017-Sep-24 10:36 UTC.
Position N 22°36' E 120°17'.

Length 93 m; draft 4.7 m.

Type: Cargo ship. MMSI: 353405000.

Date/timePositionNaut miles runAvg speedWind from/ knotsBaromVisibWave heightAir tempDewpointWater temp
2017-Sep-22 01:59N 22°36' E 120°17'0 0.0
2017-Sep-22 01:29N 22°36' E 120°17'0 0.0
2017-Sep-22 00:56N 22°36' E 120°17'0 0.0
2017-Sep-22 00:29N 22°36' E 120°17'0 0.0
2017-Sep-21 23:59N 22°36' E 120°17'0 0.0
2017-Sep-21 23:29N 22°36' E 120°17'0 0.0
2017-Sep-21 22:59N 22°36' E 120°17'0 0.0
2017-Sep-21 22:29N 22°36' E 120°17'0 0.0
2017-Sep-21 21:59N 22°36' E 120°17'0 0.0
2017-Sep-21 21:29N 22°36' E 120°17'0 0.0
2017-Sep-21 20:59N 22°36' E 120°17'0 0.0
2017-Sep-21 20:29N 22°36' E 120°17'0 0.0
2017-Sep-21 19:56N 22°36' E 120°17'0 0.0
2017-Sep-21 19:29N 22°36' E 120°17'0 0.0
2017-Sep-21 18:59N 22°36' E 120°17'0 0.0
2017-Sep-21 18:26N 22°36' E 120°17'0 0.0
2017-Sep-21 17:59N 22°36' E 120°17'0 0.0
2017-Sep-21 17:29N 22°36' E 120°17'0 0.0
2017-Sep-21 16:59N 22°37' E 120°17'0 0.0
2017-Sep-21 16:29N 22°36' E 120°17'0 0.0
2017-Sep-21 15:59N 22°36' E 120°17'0 0.0
2017-Sep-21 15:29N 22°36' E 120°17'0 0.0
2017-Sep-21 14:47N 22°36' E 120°17'0 0.0
2017-Sep-21 12:25N 22°36' E 120°17'0 0.0
2017-Sep-21 11:52N 22°36' E 120°17'0 0.0
2017-Sep-21 11:28N 22°36' E 120°17'0 0.0
2017-Sep-21 11:00N 22°36' E 120°17'3 6.0
2017-Sep-21 10:30N 22°37' E 120°14'1 1.6
2017-Sep-21 10:00N 22°37' E 120°13'0 0.1
2017-Sep-21 09:30N 22°37' E 120°14'0 0.6
2017-Sep-21 09:00N 22°37' E 120°14'0 0.3
2017-Sep-21 08:30N 22°37' E 120°13'4 7.3
2017-Sep-21 08:00N 22°39' E 120°10'714.4
2017-Sep-21 07:30N 22°45' E 120°06'9311.9
2017-Sep-20 23:44N 24°17' E 120°20'5212.1
2017-Sep-20 19:25N 24°59' E 120°53'1210.6
2017-Sep-20 18:18N 25°09' E 121°02'1811.3
2017-Sep-20 16:43N 25°18' E 121°19'  
2017-Sep-16 06:38N 34°34' E 134°49'613.9
2017-Sep-16 06:13N 34°36' E 134°55'313.0
2017-Sep-16 05:59N 34°37' E 134°58'611.8
2017-Sep-16 05:30N 34°36' E 135°05'611.7
2017-Sep-16 05:00N 34°36' E 135°12'713.2
2017-Sep-16 04:30N 34°37' E 135°20'4 8.5
2017-Sep-16 04:00N 34°38' E 135°25'0 0.1
2017-Sep-16 03:26N 34°38' E 135°25'0 0.0
2017-Sep-16 02:56N 34°38' E 135°25'0 0.0
2017-Sep-16 02:26N 34°38' E 135°25'0 0.0
2017-Sep-16 01:50N 34°38' E 135°25'0 0.0
2017-Sep-16 01:26N 34°38' E 135°25'0 0.0
2017-Sep-16 00:56N 34°38' E 135°25'0 0.0
2017-Sep-16 00:26N 34°38' E 135°25'0 0.0
2017-Sep-15 23:56N 34°38' E 135°25'0 0.0
2017-Sep-15 23:26N 34°38' E 135°25'0 0.0
2017-Sep-15 22:50N 34°38' E 135°25'0 0.0
2017-Sep-15 22:26N 34°38' E 135°25'0 0.0
2017-Sep-15 21:56N 34°38' E 135°25'0 0.0
2017-Sep-15 21:20N 34°38' E 135°25'0 0.0
2017-Sep-15 20:56N 34°38' E 135°25'0 0.0
2017-Sep-15 20:26N 34°38' E 135°25'0 0.0
2017-Sep-15 19:56N 34°38' E 135°25'0 0.0
2017-Sep-15 19:26N 34°38' E 135°25'0 0.0
2017-Sep-15 18:56N 34°38' E 135°25'0 0.0
2017-Sep-15 18:26N 34°38' E 135°25'0 0.0
2017-Sep-15 17:50N 34°38' E 135°25'0 0.0
2017-Sep-15 17:26N 34°38' E 135°25'0 0.0
2017-Sep-15 16:26N 34°38' E 135°25'0 0.0
2017-Sep-15 15:56N 34°38' E 135°25'0 0.0
2017-Sep-15 15:26N 34°38' E 135°25'0 0.0
2017-Sep-15 14:56N 34°38' E 135°25'0 0.0
2017-Sep-15 14:26N 34°38' E 135°25'0 0.0
2017-Sep-15 13:56N 34°38' E 135°25'0 0.0
2017-Sep-15 13:26N 34°38' E 135°25'0 0.0
2017-Sep-15 12:56N 34°38' E 135°25'0 0.0
2017-Sep-15 12:26N 34°38' E 135°25'0 0.0
2017-Sep-15 11:55N 34°38' E 135°25'0 0.0
2017-Sep-15 11:25N 34°38' E 135°25'0 0.0
2017-Sep-15 10:49N 34°38' E 135°25'0 0.0
2017-Sep-15 10:25N 34°38' E 135°25'0 0.0
2017-Sep-15 09:55N 34°38' E 135°25'0 0.0
2017-Sep-15 09:25N 34°38' E 135°25'0 0.0
2017-Sep-15 08:49N 34°38' E 135°25'0 0.1
2017-Sep-15 08:19N 34°38' E 135°25'0 0.0
2017-Sep-15 07:55N 34°38' E 135°25'0 0.0
2017-Sep-15 07:25N 34°38' E 135°25'0 0.0
2017-Sep-15 06:55N 34°38' E 135°25'0 0.0
2017-Sep-15 06:25N 34°38' E 135°25'0 0.0
2017-Sep-15 05:55N 34°38' E 135°25'0 0.0
2017-Sep-15 05:25N 34°38' E 135°25'0 0.0
2017-Sep-15 04:55N 34°38' E 135°25'0 0.0
2017-Sep-15 04:25N 34°38' E 135°25'0 0.0
2017-Sep-15 03:55N 34°38' E 135°25'0 0.0
2017-Sep-15 03:13N 34°38' E 135°25'0 0.0
2017-Sep-15 02:55N 34°38' E 135°25'0 0.0
2017-Sep-15 02:25N 34°38' E 135°25'0 0.0
2017-Sep-15 01:55N 34°38' E 135°25'0 0.0
2017-Sep-15 01:25N 34°38' E 135°25'0 0.0
2017-Sep-15 00:49N 34°38' E 135°25'0 0.0
2017-Sep-15 00:25N 34°38' E 135°25'0 0.0
2017-Sep-14 23:55N 34°38' E 135°25'0 0.0
2017-Sep-14 23:25N 34°38' E 135°25'0 0.0
2017-Sep-14 22:13N 34°38' E 135°25'0 0.0
2017-Sep-14 21:55N 34°38' E 135°25'0 0.0
2017-Sep-14 21:25N 34°38' E 135°25'0 0.0
2017-Sep-14 20:43N 34°38' E 135°25'0 0.0
2017-Sep-14 20:25N 34°38' E 135°25'0 0.0
2017-Sep-14 19:55N 34°38' E 135°25'0 0.0
2017-Sep-14 19:25N 34°38' E 135°25'0 0.0
2017-Sep-14 18:55N 34°38' E 135°25'0 0.0
2017-Sep-14 18:25N 34°38' E 135°25'0 0.0
2017-Sep-14 17:55N 34°38' E 135°25'0 0.0
2017-Sep-14 17:19N 34°38' E 135°25'0 0.0
2017-Sep-14 16:55N 34°38' E 135°25'0 0.0
2017-Sep-14 16:31N 34°38' E 135°25'0 0.0
2017-Sep-14 16:01N 34°38' E 135°25'0 0.0
2017-Sep-14 15:24N 34°38' E 135°25'0 0.0
2017-Sep-14 15:00N 34°38' E 135°25'0 0.0
2017-Sep-14 14:30N 34°38' E 135°25'0 0.0
2017-Sep-14 14:00N 34°38' E 135°25'0 0.0
2017-Sep-14 13:30N 34°38' E 135°25'0 0.0
2017-Sep-14 13:00N 34°38' E 135°25'0 0.0
2017-Sep-14 12:24N 34°38' E 135°25'0 0.0
2017-Sep-14 12:00N 34°38' E 135°25'0 0.0
2017-Sep-14 11:30N 34°38' E 135°25'0 0.0
2017-Sep-14 10:48N 34°38' E 135°25'0 0.0
2017-Sep-14 10:18N 34°38' E 135°25'0 0.0
2017-Sep-14 10:00N 34°38' E 135°25'0 0.0
2017-Sep-14 09:24N 34°38' E 135°25'0 0.0
2017-Sep-14 09:00N 34°38' E 135°25'0 0.0
2017-Sep-14 08:24N 34°38' E 135°25'0 0.0
2017-Sep-14 08:00N 34°38' E 135°25'0 0.0
2017-Sep-14 07:30N 34°38' E 135°25'0 0.0
2017-Sep-14 07:00N 34°38' E 135°25'0 0.0
2017-Sep-14 06:24N 34°38' E 135°25'0 0.0
2017-Sep-14 06:00N 34°38' E 135°25'0 0.0
2017-Sep-14 05:30N 34°38' E 135°25'0 0.0
2017-Sep-14 05:00N 34°38' E 135°25'0 0.0
2017-Sep-14 04:30N 34°38' E 135°25'0 0.0
2017-Sep-14 03:54N 34°38' E 135°25'0 0.0
2017-Sep-14 03:23N 34°38' E 135°25'0 0.0
2017-Sep-14 02:59N 34°38' E 135°25'0 0.0
2017-Sep-14 02:29N 34°38' E 135°25'0 0.0
2017-Sep-14 01:53N 34°38' E 135°25'0 0.0
2017-Sep-14 01:29N 34°38' E 135°25'0 0.0
2017-Sep-14 00:59N 34°38' E 135°25'0 0.0
2017-Sep-14 00:29N 34°38' E 135°25'0 0.0
2017-Sep-13 23:53N 34°38' E 135°25'0 0.0
2017-Sep-13 23:29N 34°38' E 135°25'0 0.0
2017-Sep-13 22:59N 34°38' E 135°25'0 0.0
2017-Sep-13 22:17N 34°38' E 135°25'0 0.0
2017-Sep-13 21:59N 34°38' E 135°25'0 0.8
2017-Sep-13 21:30N 34°38' E 135°24'2 1.4
2017-Sep-13 20:25N 34°37' E 135°23'0 0.0
2017-Sep-13 19:55N 34°37' E 135°23'0 0.0
2017-Sep-13 18:55N 34°37' E 135°23'0 0.0
2017-Sep-13 18:13N 34°37' E 135°23'0 0.0
2017-Sep-13 17:58N 34°37' E 135°23'0 0.0
2017-Sep-13 17:28N 34°37' E 135°23'0 0.0
2017-Sep-13 16:58N 34°37' E 135°23'0 0.0
2017-Sep-13 16:28N 34°37' E 135°23'0 0.0
2017-Sep-13 15:58N 34°37' E 135°23'0 0.0
2017-Sep-13 15:28N 34°37' E 135°23'0 0.0
2017-Sep-13 14:58N 34°37' E 135°23'0 0.0
2017-Sep-13 14:26N 34°37' E 135°23'3 7.3
2017-Sep-13 14:00N 34°36' E 135°19'612.3
2017-Sep-13 13:30N 34°35' E 135°12'713.7
2017-Sep-13 13:01N 34°35' E 135°04'612.9
2017-Sep-13 12:30N 34°36' E 134°56'  
Track history (hours):
 
Tides and Currents Weather Stations Pressure Air Temp Water Temp Dewpoint Dewpoint Depression Visibility Wind Speed Wind Dir Waves Ship Positions

Venus Seven

Last reported at 2017-Sep-22 01:59 UTC. Time now 2017-Sep-24 10:36 UTC.
Position N 22°36' E 120°17'.

Length 93 m; draft 4.7 m.

Type: Cargo ship. MMSI: 353405000.

Date/timePositionNaut miles runAvg speedWind from/ knotsBaromVisibWave heightAir tempDewpointWater temp
2017-Sep-22 01:59N 22°36' E 120°17'0 0.0
2017-Sep-22 01:29N 22°36' E 120°17'0 0.0
2017-Sep-22 00:56N 22°36' E 120°17'0 0.0
2017-Sep-22 00:29N 22°36' E 120°17'0 0.0
2017-Sep-21 23:59N 22°36' E 120°17'0 0.0
2017-Sep-21 23:29N 22°36' E 120°17'0 0.0
2017-Sep-21 22:59N 22°36' E 120°17'0 0.0
2017-Sep-21 22:29N 22°36' E 120°17'0 0.0
2017-Sep-21 21:59N 22°36' E 120°17'0 0.0
2017-Sep-21 21:29N 22°36' E 120°17'0 0.0
2017-Sep-21 20:59N 22°36' E 120°17'0 0.0
2017-Sep-21 20:29N 22°36' E 120°17'0 0.0
2017-Sep-21 19:56N 22°36' E 120°17'0 0.0
2017-Sep-21 19:29N 22°36' E 120°17'0 0.0
2017-Sep-21 18:59N 22°36' E 120°17'0 0.0
2017-Sep-21 18:26N 22°36' E 120°17'0 0.0
2017-Sep-21 17:59N 22°36' E 120°17'0 0.0
2017-Sep-21 17:29N 22°36' E 120°17'0 0.0
2017-Sep-21 16:59N 22°37' E 120°17'0 0.0
2017-Sep-21 16:29N 22°36' E 120°17'0 0.0
2017-Sep-21 15:59N 22°36' E 120°17'0 0.0
2017-Sep-21 15:29N 22°36' E 120°17'0 0.0
2017-Sep-21 14:47N 22°36' E 120°17'0 0.0
2017-Sep-21 12:25N 22°36' E 120°17'0 0.0
2017-Sep-21 11:52N 22°36' E 120°17'0 0.0
2017-Sep-21 11:28N 22°36' E 120°17'0 0.0
2017-Sep-21 11:00N 22°36' E 120°17'3 6.0
2017-Sep-21 10:30N 22°37' E 120°14'1 1.6
2017-Sep-21 10:00N 22°37' E 120°13'0 0.1
2017-Sep-21 09:30N 22°37' E 120°14'0 0.6
2017-Sep-21 09:00N 22°37' E 120°14'0 0.3
2017-Sep-21 08:30N 22°37' E 120°13'4 7.3
2017-Sep-21 08:00N 22°39' E 120°10'714.4
2017-Sep-21 07:30N 22°45' E 120°06'9311.9
2017-Sep-20 23:44N 24°17' E 120°20'5212.1
2017-Sep-20 19:25N 24°59' E 120°53'1210.6
2017-Sep-20 18:18N 25°09' E 121°02'1811.3
2017-Sep-20 16:43N 25°18' E 121°19'  
2017-Sep-16 06:38N 34°34' E 134°49'613.9
2017-Sep-16 06:13N 34°36' E 134°55'313.0
2017-Sep-16 05:59N 34°37' E 134°58'611.8
2017-Sep-16 05:30N 34°36' E 135°05'611.7
2017-Sep-16 05:00N 34°36' E 135°12'713.2
2017-Sep-16 04:30N 34°37' E 135°20'4 8.5
2017-Sep-16 04:00N 34°38' E 135°25'0 0.1
2017-Sep-16 03:26N 34°38' E 135°25'0 0.0
2017-Sep-16 02:56N 34°38' E 135°25'0 0.0
2017-Sep-16 02:26N 34°38' E 135°25'0 0.0
2017-Sep-16 01:50N 34°38' E 135°25'0 0.0
2017-Sep-16 01:26N 34°38' E 135°25'0 0.0
2017-Sep-16 00:56N 34°38' E 135°25'0 0.0
2017-Sep-16 00:26N 34°38' E 135°25'0 0.0
2017-Sep-15 23:56N 34°38' E 135°25'0 0.0
2017-Sep-15 23:26N 34°38' E 135°25'0 0.0
2017-Sep-15 22:50N 34°38' E 135°25'0 0.0
2017-Sep-15 22:26N 34°38' E 135°25'0 0.0
2017-Sep-15 21:56N 34°38' E 135°25'0 0.0
2017-Sep-15 21:20N 34°38' E 135°25'0 0.0
2017-Sep-15 20:56N 34°38' E 135°25'0 0.0
2017-Sep-15 20:26N 34°38' E 135°25'0 0.0
2017-Sep-15 19:56N 34°38' E 135°25'0 0.0
2017-Sep-15 19:26N 34°38' E 135°25'0 0.0
2017-Sep-15 18:56N 34°38' E 135°25'0 0.0
2017-Sep-15 18:26N 34°38' E 135°25'0 0.0
2017-Sep-15 17:50N 34°38' E 135°25'0 0.0
2017-Sep-15 17:26N 34°38' E 135°25'0 0.0
2017-Sep-15 16:26N 34°38' E 135°25'0 0.0
2017-Sep-15 15:56N 34°38' E 135°25'0 0.0
2017-Sep-15 15:26N 34°38' E 135°25'0 0.0
2017-Sep-15 14:56N 34°38' E 135°25'0 0.0
2017-Sep-15 14:26N 34°38' E 135°25'0 0.0
2017-Sep-15 13:56N 34°38' E 135°25'0 0.0
2017-Sep-15 13:26N 34°38' E 135°25'0 0.0
2017-Sep-15 12:56N 34°38' E 135°25'0 0.0
2017-Sep-15 12:26N 34°38' E 135°25'0 0.0
2017-Sep-15 11:55N 34°38' E 135°25'0 0.0
2017-Sep-15 11:25N 34°38' E 135°25'0 0.0
2017-Sep-15 10:49N 34°38' E 135°25'0 0.0
2017-Sep-15 10:25N 34°38' E 135°25'0 0.0
2017-Sep-15 09:55N 34°38' E 135°25'0 0.0
2017-Sep-15 09:25N 34°38' E 135°25'0 0.0
2017-Sep-15 08:49N 34°38' E 135°25'0 0.1
2017-Sep-15 08:19N 34°38' E 135°25'0 0.0
2017-Sep-15 07:55N 34°38' E 135°25'0 0.0
2017-Sep-15 07:25N 34°38' E 135°25'0 0.0
2017-Sep-15 06:55N 34°38' E 135°25'0 0.0
2017-Sep-15 06:25N 34°38' E 135°25'0 0.0
2017-Sep-15 05:55N 34°38' E 135°25'0 0.0
2017-Sep-15 05:25N 34°38' E 135°25'0 0.0
2017-Sep-15 04:55N 34°38' E 135°25'0 0.0
2017-Sep-15 04:25N 34°38' E 135°25'0 0.0
2017-Sep-15 03:55N 34°38' E 135°25'0 0.0
2017-Sep-15 03:13N 34°38' E 135°25'0 0.0
2017-Sep-15 02:55N 34°38' E 135°25'0 0.0
2017-Sep-15 02:25N 34°38' E 135°25'0 0.0
2017-Sep-15 01:55N 34°38' E 135°25'0 0.0
2017-Sep-15 01:25N 34°38' E 135°25'0 0.0
2017-Sep-15 00:49N 34°38' E 135°25'0 0.0
2017-Sep-15 00:25N 34°38' E 135°25'0 0.0
2017-Sep-14 23:55N 34°38' E 135°25'0 0.0
2017-Sep-14 23:25N 34°38' E 135°25'0 0.0
2017-Sep-14 22:13N 34°38' E 135°25'0 0.0
2017-Sep-14 21:55N 34°38' E 135°25'0 0.0
2017-Sep-14 21:25N 34°38' E 135°25'0 0.0
2017-Sep-14 20:43N 34°38' E 135°25'0 0.0
2017-Sep-14 20:25N 34°38' E 135°25'0 0.0
2017-Sep-14 19:55N 34°38' E 135°25'0 0.0
2017-Sep-14 19:25N 34°38' E 135°25'0 0.0
2017-Sep-14 18:55N 34°38' E 135°25'0 0.0
2017-Sep-14 18:25N 34°38' E 135°25'0 0.0
2017-Sep-14 17:55N 34°38' E 135°25'0 0.0
2017-Sep-14 17:19N 34°38' E 135°25'0 0.0
2017-Sep-14 16:55N 34°38' E 135°25'0 0.0
2017-Sep-14 16:31N 34°38' E 135°25'0 0.0
2017-Sep-14 16:01N 34°38' E 135°25'0 0.0
2017-Sep-14 15:24N 34°38' E 135°25'0 0.0
2017-Sep-14 15:00N 34°38' E 135°25'0 0.0
2017-Sep-14 14:30N 34°38' E 135°25'0 0.0
2017-Sep-14 14:00N 34°38' E 135°25'0 0.0
2017-Sep-14 13:30N 34°38' E 135°25'0 0.0
2017-Sep-14 13:00N 34°38' E 135°25'0 0.0
2017-Sep-14 12:24N 34°38' E 135°25'0 0.0
2017-Sep-14 12:00N 34°38' E 135°25'0 0.0
2017-Sep-14 11:30N 34°38' E 135°25'0 0.0
2017-Sep-14 10:48N 34°38' E 135°25'0 0.0
2017-Sep-14 10:18N 34°38' E 135°25'0 0.0
2017-Sep-14 10:00N 34°38' E 135°25'0 0.0
2017-Sep-14 09:24N 34°38' E 135°25'0 0.0
2017-Sep-14 09:00N 34°38' E 135°25'0 0.0
2017-Sep-14 08:24N 34°38' E 135°25'0 0.0
2017-Sep-14 08:00N 34°38' E 135°25'0 0.0
2017-Sep-14 07:30N 34°38' E 135°25'0 0.0
2017-Sep-14 07:00N 34°38' E 135°25'0 0.0
2017-Sep-14 06:24N 34°38' E 135°25'0 0.0
2017-Sep-14 06:00N 34°38' E 135°25'0 0.0
2017-Sep-14 05:30N 34°38' E 135°25'0 0.0
2017-Sep-14 05:00N 34°38' E 135°25'0 0.0
2017-Sep-14 04:30N 34°38' E 135°25'0 0.0
2017-Sep-14 03:54N 34°38' E 135°25'0 0.0
2017-Sep-14 03:23N 34°38' E 135°25'0 0.0
2017-Sep-14 02:59N 34°38' E 135°25'0 0.0
2017-Sep-14 02:29N 34°38' E 135°25'0 0.0
2017-Sep-14 01:53N 34°38' E 135°25'0 0.0
2017-Sep-14 01:29N 34°38' E 135°25'0 0.0
2017-Sep-14 00:59N 34°38' E 135°25'0 0.0
2017-Sep-14 00:29N 34°38' E 135°25'0 0.0
2017-Sep-13 23:53N 34°38' E 135°25'0 0.0
2017-Sep-13 23:29N 34°38' E 135°25'0 0.0
2017-Sep-13 22:59N 34°38' E 135°25'0 0.0
2017-Sep-13 22:17N 34°38' E 135°25'0 0.0
2017-Sep-13 21:59N 34°38' E 135°25'0 0.8
2017-Sep-13 21:30N 34°38' E 135°24'2 1.4
2017-Sep-13 20:25N 34°37' E 135°23'0 0.0
2017-Sep-13 19:55N 34°37' E 135°23'0 0.0
2017-Sep-13 18:55N 34°37' E 135°23'0 0.0
2017-Sep-13 18:13N 34°37' E 135°23'0 0.0
2017-Sep-13 17:58N 34°37' E 135°23'0 0.0
2017-Sep-13 17:28N 34°37' E 135°23'0 0.0
2017-Sep-13 16:58N 34°37' E 135°23'0 0.0
2017-Sep-13 16:28N 34°37' E 135°23'0 0.0
2017-Sep-13 15:58N 34°37' E 135°23'0 0.0
2017-Sep-13 15:28N 34°37' E 135°23'0 0.0
2017-Sep-13 14:58N 34°37' E 135°23'0 0.0
2017-Sep-13 14:26N 34°37' E 135°23'3 7.3
2017-Sep-13 14:00N 34°36' E 135°19'612.3
2017-Sep-13 13:30N 34°35' E 135°12'713.7
2017-Sep-13 13:01N 34°35' E 135°04'612.9
2017-Sep-13 12:30N 34°36' E 134°56'  

Dump ship's entire track history